Time;durP1;ratioP1;P1;durP2;ratioP2;P2;SDS_P1;SDS_P2;PMS_P1;PMS_P2;Temp;Humidity;BMP_temperature;BMP_pressure;BME280_temperature;BME280_humidity;BME280_pressure;Samples;Min_cycle;Max_cycle;Signal;HPM_P1;HPM_P2
2024/02/06 00:01:57;;;;;;;9.80;5.07;;;8.30;99.90;;;;;;5052824;28;20174;-90
2024/02/06 00:04:23;;;;;;;14.07;5.63;;;8.20;99.90;;;;;;5052452;28;20186;-89
2024/02/06 00:06:48;;;;;;;9.90;5.17;;;8.10;99.90;;;;;;5053910;28;20170;-88
2024/02/06 00:09:14;;;;;;;11.63;5.60;;;8.20;99.90;;;;;;5052414;28;20186;-89
2024/02/06 00:11:42;;;;;;;11.13;5.63;;;8.20;99.90;;;;;;5034799;28;20182;-89
2024/02/06 00:16:45;;;;;;;11.77;6.63;;;8.00;99.90;;;;;;5007561;23;20677;-88
2024/02/06 00:19:11;;;;;;;14.83;6.63;;;8.00;99.90;;;;;;5008001;28;20195;-87
2024/02/06 00:21:36;;;;;;;11.80;7.43;;;8.00;99.90;;;;;;5018050;28;20334;-84
2024/02/06 00:24:02;;;;;;;11.73;7.10;;;8.00;99.90;;;;;;5014815;28;20218;-87
2024/02/06 00:26:34;;;;;;;14.07;7.77;;;8.00;99.90;;;;;;5038626;28;20179;-89
2024/02/06 00:28:59;;;;;;;10.93;7.20;;;8.00;99.90;;;;;;5037969;28;20269;-90
2024/02/06 00:31:25;;;;;;;12.27;7.40;;;7.90;99.90;;;;;;5019258;28;20279;-90
2024/02/06 00:33:51;;;;;;;10.17;7.60;;;8.00;99.90;;;;;;5012713;28;20600;-90
2024/02/06 00:36:17;;;;;;;12.77;7.30;;;8.00;99.90;;;;;;5020240;28;20197;-90
2024/02/06 00:38:44;;;;;;;13.77;8.10;;;7.90;99.90;;;;;;5003958;28;20202;-88
2024/02/06 00:41:11;;;;;;;12.20;8.10;;;7.90;99.90;;;;;;5013631;28;20219;-88
2024/02/06 00:43:58;;;;;;;11.80;7.83;;;7.90;99.90;;;;;;5012113;28;20198;-89
2024/02/06 00:46:25;;;;;;;11.80;7.77;;;7.90;99.90;;;;;;5024399;28;20266;-90
2024/02/06 00:48:53;;;;;;;11.57;7.60;;;7.90;99.90;;;;;;5020759;28;20225;-90
2024/02/06 00:51:19;;;;;;;10.33;7.13;;;7.90;99.90;;;;;;5012252;28;20182;-91
2024/02/06 00:53:45;;;;;;;11.27;7.87;;;7.90;99.90;;;;;;5019993;28;20555;-87
2024/02/06 00:56:10;;;;;;;11.83;7.23;;;8.00;99.90;;;;;;5012435;28;20186;-89
2024/02/06 00:58:36;;;;;;;9.80;7.57;;;8.00;99.90;;;;;;5020388;28;20320;-88
2024/02/06 01:01:02;;;;;;;11.80;7.20;;;8.00;99.90;;;;;;5019870;28;20188;-91
2024/02/06 01:03:28;;;;;;;9.70;6.57;;;8.00;99.90;;;;;;5020054;28;20240;-88
2024/02/06 01:05:53;;;;;;;12.43;6.87;;;8.10;99.90;;;;;;5020429;28;20194;-85
2024/02/06 01:08:20;;;;;;;14.57;6.60;;;8.20;99.90;;;;;;5037961;28;20208;-91
2024/02/06 01:10:46;;;;;;;12.40;6.60;;;8.20;99.90;;;;;;5008711;28;20226;-88
2024/02/06 01:13:12;;;;;;;11.17;6.63;;;8.20;99.90;;;;;;5008184;28;20243;-87
2024/02/06 01:15:37;;;;;;;8.30;6.10;;;8.20;99.90;;;;;;5017890;28;20244;-89
2024/02/06 01:18:03;;;;;;;9.40;5.80;;;8.20;99.90;;;;;;4996439;28;20184;-89
2024/02/06 01:20:29;;;;;;;10.03;5.63;;;8.20;99.90;;;;;;5004627;28;20528;-87
2024/02/06 01:22:55;;;;;;;11.33;6.70;;;8.20;99.90;;;;;;5001060;28;20225;-86
2024/02/06 01:25:20;;;;;;;9.67;6.23;;;8.10;99.90;;;;;;5009664;28;20191;-91
2024/02/06 01:27:46;;;;;;;14.30;6.93;;;8.00;99.90;;;;;;5007918;28;20191;-88
2024/02/06 01:30:13;;;;;;;12.17;7.30;;;8.10;99.90;;;;;;5017947;28;20193;-89
2024/02/06 01:32:39;;;;;;;10.03;6.97;;;8.00;99.90;;;;;;5015979;28;20584;-92
2024/02/06 01:35:05;;;;;;;10.50;6.97;;;8.00;99.90;;;;;;5001659;28;20199;-90
2024/02/06 01:37:31;;;;;;;11.47;7.30;;;7.90;99.90;;;;;;5006557;28;20528;-91
2024/02/06 01:39:57;;;;;;;10.63;7.03;;;7.90;99.90;;;;;;5016609;28;20610;-85
2024/02/06 01:42:23;;;;;;;8.33;6.57;;;7.90;99.90;;;;;;4999401;28;20235;-86
2024/02/06 01:44:49;;;;;;;8.33;6.60;;;8.00;99.90;;;;;;5024160;28;20190;-87
2024/02/06 01:47:15;;;;;;;7.80;6.10;;;7.90;99.90;;;;;;5007274;28;20180;-88
2024/02/06 01:49:42;;;;;;;8.40;5.73;;;7.90;99.90;;;;;;5015693;28;20182;-88
2024/02/06 01:52:09;;;;;;;7.73;4.97;;;7.90;99.90;;;;;;5009344;28;20183;-90
2024/02/06 01:54:35;;;;;;;7.50;5.57;;;7.90;99.90;;;;;;5013926;28;20638;-89
2024/02/06 01:57:09;;;;;;;7.77;5.27;;;7.90;99.90;;;;;;5015328;28;20190;-89
2024/02/06 01:59:35;;;;;;;8.13;5.13;;;7.90;99.90;;;;;;4999107;28;20186;-89
2024/02/06 02:02:01;;;;;;;7.70;5.37;;;7.90;99.90;;;;;;5015225;28;20191;-89
2024/02/06 02:04:26;;;;;;;8.40;4.77;;;7.90;99.90;;;;;;5007178;28;20214;-87
2024/02/06 02:06:54;;;;;;;7.10;4.70;;;8.00;99.90;;;;;;5011336;28;20211;-88
2024/02/06 02:09:24;;;;;;;7.90;4.77;;;8.00;99.90;;;;;;5019896;28;20555;-90
2024/02/06 02:11:49;;;;;;;7.20;4.67;;;8.00;99.90;;;;;;4999658;28;20194;-89
2024/02/06 02:14:15;;;;;;;11.17;4.80;;;8.00;99.90;;;;;;5008021;28;20526;-84
2024/02/06 02:16:41;;;;;;;6.07;4.80;;;8.00;99.90;;;;;;5011743;28;20281;-86
2024/02/06 02:19:09;;;;;;;7.90;4.60;;;8.00;99.90;;;;;;5009624;28;20503;-87
2024/02/06 02:21:35;;;;;;;5.90;4.60;;;8.00;99.90;;;;;;4998704;28;20180;-87
2024/02/06 02:24:03;;;;;;;8.20;4.80;;;8.10;99.90;;;;;;5014822;28;20269;-88
2024/02/06 02:26:30;;;;;;;7.87;4.80;;;8.00;99.90;;;;;;5013968;28;20221;-89
2024/02/06 02:28:58;;;;;;;7.53;4.93;;;8.00;99.90;;;;;;5008039;28;20183;-87
2024/02/06 02:31:25;;;;;;;9.50;4.80;;;8.00;99.90;;;;;;5006370;28;20216;-87
2024/02/06 02:33:51;;;;;;;7.37;4.53;;;8.00;99.90;;;;;;5007190;28;20218;-88
2024/02/06 02:36:17;;;;;;;10.63;5.30;;;8.00;99.90;;;;;;5014907;28;20186;-90
2024/02/06 02:38:45;;;;;;;7.57;4.60;;;8.00;99.90;;;;;;4998371;28;20270;-88
2024/02/06 02:41:10;;;;;;;8.13;4.87;;;8.10;99.90;;;;;;5006629;28;20633;-89
2024/02/06 02:43:36;;;;;;;8.33;4.80;;;8.00;99.90;;;;;;5006385;28;20304;-90
2024/02/06 02:46:02;;;;;;;7.77;4.90;;;8.00;99.90;;;;;;5017327;28;20241;-85
2024/02/06 02:48:34;;;;;;;6.40;4.97;;;8.10;99.90;;;;;;5007105;28;20298;-87
2024/02/06 02:51:00;;;;;;;9.50;5.73;;;8.10;99.90;;;;;;5009248;28;20274;-88
2024/02/06 02:53:26;;;;;;;8.30;5.80;;;8.10;99.90;;;;;;5011946;28;20250;-87
2024/02/06 02:55:51;;;;;;;9.77;5.60;;;8.10;99.90;;;;;;5014630;28;20179;-85
2024/02/06 02:58:23;;;;;;;8.23;5.03;;;8.10;99.90;;;;;;5014515;28;20685;-88
2024/02/06 03:00:49;;;;;;;10.10;5.90;;;8.10;99.90;;;;;;4994161;28;20271;-91
2024/02/06 03:03:15;;;;;;;8.83;5.47;;;8.10;99.90;;;;;;5009425;28;20270;-89
2024/02/06 03:05:41;;;;;;;8.33;5.70;;;8.10;99.90;;;;;;5012424;28;20190;-86
2024/02/06 03:08:13;;;;;;;6.97;6.13;;;8.20;99.90;;;;;;5011495;28;20175;-88
2024/02/06 03:10:39;;;;;;;11.60;6.87;;;8.10;99.90;;;;;;5006256;28;20234;-90
2024/02/06 03:13:05;;;;;;;8.77;6.57;;;8.10;99.90;;;;;;5006220;28;20207;-90
2024/02/06 03:15:31;;;;;;;11.23;7.17;;;8.20;99.90;;;;;;5018705;28;20308;-90
2024/02/06 03:17:57;;;;;;;8.43;6.37;;;8.10;99.90;;;;;;5007375;28;20183;-87
2024/02/06 03:20:23;;;;;;;12.07;6.67;;;8.20;99.90;;;;;;4997834;28;20191;-86
2024/02/06 03:22:49;;;;;;;12.57;7.43;;;8.20;99.90;;;;;;5014170;28;20179;-88
2024/02/06 03:25:15;;;;;;;11.03;6.70;;;8.20;99.90;;;;;;5014276;28;20195;-87
2024/02/06 03:27:43;;;;;;;9.20;6.40;;;8.20;99.90;;;;;;5005874;28;20284;-88
2024/02/06 03:30:11;;;;;;;9.70;6.33;;;8.20;99.90;;;;;;5014177;28;20270;-91
2024/02/06 03:32:37;;;;;;;10.13;6.80;;;8.30;99.90;;;;;;5013666;28;20187;-88
2024/02/06 03:35:04;;;;;;;9.70;6.23;;;8.30;99.90;;;;;;5013937;28;20230;-86
2024/02/06 03:37:30;;;;;;;10.57;6.10;;;8.30;99.90;;;;;;5012952;28;20585;-88
2024/02/06 03:39:56;;;;;;;9.73;5.80;;;8.40;99.90;;;;;;5007557;28;20216;-90
2024/02/06 03:42:22;;;;;;;8.37;6.07;;;8.40;99.90;;;;;;5014175;28;20183;-89
2024/02/06 03:44:48;;;;;;;10.83;6.00;;;8.50;99.90;;;;;;5015178;28;20187;-88
2024/02/06 03:47:14;;;;;;;14.97;7.33;;;8.40;99.90;;;;;;5011242;28;20271;-94
2024/02/06 03:49:42;;;;;;;10.60;5.83;;;8.40;99.90;;;;;;5004656;28;20278;-89
2024/02/06 03:52:07;;;;;;;8.67;5.87;;;8.40;99.90;;;;;;5018053;28;20183;-89
2024/02/06 03:54:33;;;;;;;11.10;6.60;;;8.40;99.90;;;;;;5017456;28;20211;-87
2024/02/06 03:56:59;;;;;;;9.43;6.57;;;8.40;99.90;;;;;;5017654;28;20221;-91
2024/02/06 03:59:26;;;;;;;10.67;6.47;;;8.40;99.90;;;;;;5017989;28;20554;-88
2024/02/06 04:01:52;;;;;;;10.83;6.37;;;8.40;99.90;;;;;;5017544;28;20190;-87
2024/02/06 04:04:18;;;;;;;10.50;6.53;;;8.40;99.90;;;;;;5001831;28;20192;-85
2024/02/06 04:06:43;;;;;;;9.70;5.90;;;8.40;99.90;;;;;;5016850;28;20191;-87
2024/02/06 04:09:10;;;;;;;10.50;6.90;;;8.30;99.90;;;;;;5003233;28;20384;-93
2024/02/06 04:11:35;;;;;;;9.07;6.30;;;8.30;99.90;;;;;;5008048;28;20194;-89
2024/02/06 04:14:02;;;;;;;11.90;6.23;;;8.30;99.90;;;;;;5011898;28;20650;-90
2024/02/06 04:16:28;;;;;;;13.53;6.13;;;8.30;99.90;;;;;;5002926;28;20235;-88
2024/02/06 04:18:54;;;;;;;11.23;6.17;;;8.40;99.90;;;;;;4990207;28;20184;-92
2024/02/06 04:21:20;;;;;;;10.33;6.07;;;8.30;99.90;;;;;;4997917;28;20215;-89
2024/02/06 04:23:46;;;;;;;10.33;5.83;;;8.30;99.90;;;;;;4997851;28;20189;-87
2024/02/06 04:26:12;;;;;;;12.70;6.20;;;8.40;99.90;;;;;;4997720;28;20188;-87
2024/02/06 04:28:38;;;;;;;7.33;5.70;;;8.30;99.90;;;;;;4997752;28;20195;-93
2024/02/06 04:31:04;;;;;;;9.47;5.93;;;8.30;99.90;;;;;;4990081;28;20184;-87
2024/02/06 04:33:30;;;;;;;8.07;5.67;;;8.30;99.90;;;;;;4980927;28;20223;-87
2024/02/06 04:35:55;;;;;;;9.00;5.60;;;8.30;99.90;;;;;;4986443;28;20196;-88
2024/02/06 04:38:21;;;;;;;8.07;5.13;;;8.30;99.90;;;;;;4994525;28;20559;-91
2024/02/06 04:40:48;;;;;;;8.67;6.07;;;8.40;99.90;;;;;;4989455;28;20249;-86
2024/02/06 04:43:14;;;;;;;8.52;6.13;;;8.40;99.90;;;;;;4998237;28;20634;-87
2024/02/06 04:45:40;;;;;;;9.03;5.87;;;8.40;99.90;;;;;;4997741;28;20191;-90
2024/02/06 04:48:06;;;;;;;10.10;5.47;;;8.40;99.90;;;;;;4997293;28;20188;-85
2024/02/06 04:50:37;;;;;;;10.47;5.37;;;8.40;99.90;;;;;;4997495;28;20192;-84
2024/02/06 04:53:04;;;;;;;8.37;5.50;;;8.40;99.90;;;;;;4997974;28;20207;-86
2024/02/06 04:55:33;;;;;;;10.90;5.90;;;8.40;99.90;;;;;;4997490;28;20615;-91
2024/02/06 04:58:00;;;;;;;10.13;5.20;;;8.40;99.90;;;;;;4998770;28;20187;-94
2024/02/06 05:00:29;;;;;;;9.63;5.10;;;8.40;99.90;;;;;;4997802;28;20195;-86
2024/02/06 05:02:55;;;;;;;7.40;5.00;;;8.40;99.90;;;;;;4989453;28;20261;-88
2024/02/06 05:05:20;;;;;;;10.00;5.40;;;8.40;99.90;;;;;;4989895;28;20189;-85
2024/02/06 05:07:47;;;;;;;11.83;5.47;;;8.40;99.90;;;;;;4997186;28;20223;-88
2024/02/06 05:10:13;;;;;;;7.00;4.90;;;8.40;99.90;;;;;;4997689;28;20191;-92
2024/02/06 05:12:39;;;;;;;8.77;5.17;;;8.40;99.90;;;;;;4994799;28;20587;-86
2024/02/06 05:15:05;;;;;;;7.43;4.83;;;8.40;99.90;;;;;;4993399;28;20320;-88
2024/02/06 05:17:31;;;;;;;5.93;4.60;;;8.40;99.90;;;;;;5016361;28;20645;-89
2024/02/06 05:20:06;;;;;;;8.83;5.03;;;8.40;99.90;;;;;;5008586;28;20186;-89
2024/02/06 05:22:33;;;;;;;7.73;4.60;;;8.40;99.90;;;;;;5008926;28;20183;-90
2024/02/06 05:24:59;;;;;;;7.90;4.80;;;8.40;99.90;;;;;;5012355;28;20226;-91
2024/02/06 05:27:25;;;;;;;8.67;4.20;;;8.50;99.90;;;;;;5005818;28;20179;-86
2024/02/06 05:29:53;;;;;;;5.57;4.43;;;8.50;99.90;;;;;;5012092;28;20698;-87
2024/02/06 05:32:19;;;;;;;8.17;4.50;;;8.50;99.90;;;;;;4995764;28;20183;-92
2024/02/06 05:34:45;;;;;;;7.10;4.70;;;8.50;99.90;;;;;;5012082;28;20517;-85
2024/02/06 05:37:11;;;;;;;10.63;4.37;;;8.50;99.90;;;;;;4997448;28;20190;-88
2024/02/06 05:39:47;;;;;;;7.23;4.53;;;8.50;99.90;;;;;;5004119;28;20504;-86
2024/02/06 05:42:12;;;;;;;8.63;4.43;;;8.50;99.90;;;;;;5010811;28;20685;-89
2024/02/06 05:44:38;;;;;;;5.47;4.10;;;8.50;99.90;;;;;;5007579;28;20221;-87
2024/02/06 05:47:07;;;;;;;4.97;3.70;;;8.50;99.90;;;;;;5021072;28;20266;-88
2024/02/06 05:49:35;;;;;;;6.83;4.30;;;8.50;99.90;;;;;;5006117;28;20179;-87
2024/02/06 05:52:05;;;;;;;7.00;4.50;;;8.50;99.90;;;;;;5004624;28;20303;-86
2024/02/06 05:54:31;;;;;;;7.27;4.07;;;8.50;99.90;;;;;;5005034;28;20238;-88
2024/02/06 05:56:56;;;;;;;6.23;4.03;;;8.50;99.90;;;;;;5007320;28;20268;-88
2024/02/06 05:59:24;;;;;;;7.00;4.20;;;8.50;99.90;;;;;;5016247;28;20190;-87
2024/02/06 06:01:52;;;;;;;7.07;4.27;;;8.50;99.90;;;;;;5014957;28;20179;-86
2024/02/06 06:04:18;;;;;;;5.87;4.20;;;8.50;99.90;;;;;;5007383;28;20241;-87
2024/02/06 06:06:43;;;;;;;8.83;4.43;;;8.50;99.90;;;;;;5015071;28;20230;-88
2024/02/06 06:09:09;;;;;;;7.50;4.90;;;8.50;99.90;;;;;;5015286;28;20179;-94
2024/02/06 06:11:35;;;;;;;6.27;4.50;;;8.50;99.90;;;;;;5014056;28;20230;-87
2024/02/06 06:14:01;;;;;;;8.60;4.57;;;8.50;99.90;;;;;;5014408;28;20222;-85
2024/02/06 06:16:27;;;;;;;7.27;4.90;;;8.60;99.90;;;;;;5027456;28;20230;-87
2024/02/06 06:18:53;;;;;;;5.80;4.23;;;8.60;99.90;;;;;;5014978;28;20676;-86
2024/02/06 06:21:24;;;;;;;8.27;4.30;;;8.60;99.90;;;;;;5015009;28;20182;-86
2024/02/06 06:23:50;;;;;;;11.00;4.60;;;8.60;99.90;;;;;;5006706;28;20191;-90
2024/02/06 06:26:15;;;;;;;6.93;4.78;;;8.60;99.90;;;;;;5015854;28;20634;-88
2024/02/06 06:28:41;;;;;;;12.43;5.55;;;8.60;99.90;;;;;;5014757;28;20187;-85
2024/02/06 06:31:08;;;;;;;7.20;4.63;;;8.60;99.90;;;;;;5014562;28;20241;-87
2024/02/06 06:33:34;;;;;;;7.20;4.33;;;8.60;99.90;;;;;;5014812;28;20302;-88
2024/02/06 06:36:00;;;;;;;8.87;4.63;;;8.60;99.90;;;;;;5014639;28;20223;-92
2024/02/06 06:38:25;;;;;;;10.93;4.93;;;8.60;99.90;;;;;;5006275;28;20606;-90
2024/02/06 06:41:00;;;;;;;9.00;5.10;;;8.60;99.90;;;;;;5014546;28;20187;-89
2024/02/06 06:43:26;;;;;;;7.90;4.63;;;8.60;99.90;;;;;;5014584;28;20229;-86
2024/02/06 06:45:51;;;;;;;7.65;5.07;;;8.60;99.90;;;;;;5020311;28;20191;-85
2024/02/06 06:48:17;;;;;;;6.77;4.80;;;8.60;99.90;;;;;;4999067;28;20191;-87
2024/02/06 06:50:44;;;;;;;11.60;4.90;;;8.70;99.90;;;;;;5006843;28;20274;-86
2024/02/06 06:53:10;;;;;;;7.53;4.60;;;8.70;99.90;;;;;;5006443;28;20285;-89
2024/02/06 06:55:35;;;;;;;8.97;5.27;;;8.60;99.90;;;;;;5006213;28;20195;-86
2024/02/06 06:58:01;;;;;;;8.93;4.50;;;8.70;99.90;;;;;;5014511;28;20190;-88
2024/02/06 07:00:27;;;;;;;11.50;4.93;;;8.60;99.90;;;;;;5013786;28;20186;-87
2024/02/06 07:02:53;;;;;;;10.40;4.87;;;8.70;99.90;;;;;;5006979;28;20179;-87
2024/02/06 07:05:22;;;;;;;9.00;4.22;;;8.70;99.90;;;;;;5014366;28;20661;-86
2024/02/06 07:07:48;;;;;;;9.23;4.67;;;8.70;99.90;;;;;;5006380;28;20183;-88
2024/02/06 07:10:14;;;;;;;8.53;4.30;;;8.70;99.90;;;;;;5014276;28;20187;-89
2024/02/06 07:12:40;;;;;;;8.57;4.63;;;8.80;99.90;;;;;;5006001;28;20190;-84
2024/02/06 07:15:06;;;;;;;9.68;4.47;;;8.80;99.90;;;;;;5017284;28;20563;-87
2024/02/06 07:17:32;;;;;;;8.83;4.10;;;8.80;99.90;;;;;;5007958;28;20179;-84
2024/02/06 07:19:58;;;;;;;11.70;4.40;;;8.80;99.90;;;;;;5009411;28;20607;-88
2024/02/06 07:22:24;;;;;;;9.77;4.37;;;8.80;99.90;;;;;;5002488;28;20926;-88
2024/02/06 07:24:51;;;;;;;8.30;3.70;;;8.90;99.90;;;;;;5005568;28;20183;-87
2024/02/06 07:27:16;;;;;;;9.02;4.38;;;8.90;99.90;;;;;;5002762;28;20184;-88
2024/02/06 07:29:42;;;;;;;7.72;3.67;;;8.90;99.90;;;;;;5017771;28;20182;-86
2024/02/06 07:32:09;;;;;;;9.90;3.97;;;8.90;99.90;;;;;;5011937;28;20179;-91
2024/02/06 07:34:34;;;;;;;6.67;3.67;;;8.90;99.90;;;;;;5007673;28;20548;-91
2024/02/06 07:37:00;;;;;;;7.37;3.83;;;8.90;99.90;;;;;;5009839;28;20193;-88
2024/02/06 07:39:26;;;;;;;7.70;3.40;;;8.90;99.90;;;;;;5018048;28;20194;-88
2024/02/06 07:41:52;;;;;;;7.43;4.17;;;8.90;99.90;;;;;;5014205;28;20262;-91
2024/02/06 07:44:18;;;;;;;7.90;3.90;;;8.90;99.90;;;;;;5013975;28;20179;-88
2024/02/06 07:46:44;;;;;;;9.57;4.20;;;8.90;99.90;;;;;;5017756;28;20649;-89
2024/02/06 07:49:10;;;;;;;6.27;4.03;;;8.90;99.90;;;;;;5012651;28;20183;-88
2024/02/06 07:51:36;;;;;;;7.60;3.87;;;8.80;99.90;;;;;;5008054;28;20194;-87
2024/02/06 07:54:03;;;;;;;5.17;3.47;;;8.80;99.90;;;;;;4998109;28;20295;-87
2024/02/06 07:56:30;;;;;;;5.63;3.50;;;8.80;99.90;;;;;;5015158;28;20187;-91
2024/02/06 07:59:02;;;;;;;4.83;3.03;;;8.80;99.90;;;;;;5009646;28;20210;-86
2024/02/06 08:01:28;;;;;;;4.53;2.90;;;8.90;99.90;;;;;;5014190;28;20187;-90
2024/02/06 08:03:54;;;;;;;6.07;3.10;;;8.90;99.90;;;;;;5014460;28;20190;-89
2024/02/06 08:06:20;;;;;;;5.95;3.35;;;9.00;99.90;;;;;;5015444;28;20183;-89
2024/02/06 08:08:46;;;;;;;6.80;3.23;;;9.00;99.90;;;;;;5013887;28;20218;-89
2024/02/06 08:11:12;;;;;;;6.07;2.90;;;9.00;99.90;;;;;;5011881;28;20594;-89
2024/02/06 08:13:41;;;;;;;5.90;3.20;;;9.00;99.90;;;;;;5014498;28;20657;-90
2024/02/06 08:16:07;;;;;;;6.20;3.03;;;9.10;99.90;;;;;;5012718;28;20234;-88
2024/02/06 08:18:33;;;;;;;5.27;2.90;;;9.10;99.90;;;;;;5014543;28;20309;-90
2024/02/06 08:20:58;;;;;;;4.37;2.60;;;9.10;99.90;;;;;;5010669;28;20214;-91
2024/02/06 08:23:28;;;;;;;6.87;2.83;;;9.10;99.90;;;;;;5014598;28;20494;-89
2024/02/06 08:25:54;;;;;;;7.33;3.83;;;9.10;99.90;;;;;;5029187;28;20188;-90
2024/02/06 08:28:20;;;;;;;6.57;2.92;;;9.20;99.90;;;;;;5014278;28;20171;-87
2024/02/06 08:30:48;;;;;;;5.10;3.07;;;9.10;99.90;;;;;;5012897;28;20190;-89
2024/02/06 08:33:14;;;;;;;4.87;3.23;;;9.10;99.90;;;;;;5015696;28;20226;-88
2024/02/06 08:35:40;;;;;;;5.40;2.87;;;9.10;99.90;;;;;;5010210;28;20191;-86
2024/02/06 08:38:07;;;;;;;3.40;2.67;;;9.20;99.90;;;;;;5013083;28;20183;-91
2024/02/06 08:40:33;;;;;;;4.70;3.03;;;9.10;99.90;;;;;;5010297;28;20287;-87
2024/02/06 08:42:59;;;;;;;3.47;2.40;;;9.10;99.90;;;;;;5012391;28;20184;-86
2024/02/06 08:45:25;;;;;;;4.35;2.83;;;9.10;99.90;;;;;;5014197;28;20182;-90
2024/02/06 08:47:51;;;;;;;6.33;3.30;;;9.10;99.90;;;;;;5014691;28;20179;-89
2024/02/06 08:50:17;;;;;;;7.25;2.92;;;9.10;99.90;;;;;;5016381;28;20190;-88
2024/02/06 08:52:45;;;;;;;5.33;3.27;;;9.10;99.90;;;;;;5014244;28;20223;-91
2024/02/06 08:55:11;;;;;;;5.65;2.72;;;9.20;99.90;;;;;;5014598;28;20283;-88
2024/02/06 08:57:37;;;;;;;7.77;2.50;;;9.20;99.90;;;;;;5013042;28;20183;-91
2024/02/06 09:00:11;;;;;;;6.80;2.70;;;9.20;99.90;;;;;;5014923;28;20204;-89
2024/02/06 09:02:38;;;;;;;3.45;2.30;;;9.20;99.90;;;;;;5013629;28;20217;-91
2024/02/06 09:05:04;;;;;;;3.40;2.33;;;9.20;99.90;;;;;;5013317;28;20578;-92
2024/02/06 09:07:30;;;;;;;4.85;2.70;;;9.30;99.90;;;;;;5011773;28;20679;-90
2024/02/06 09:09:57;;;;;;;4.00;2.13;;;9.30;99.90;;;;;;5012582;28;20172;-89
2024/02/06 09:12:46;;;;;;;4.50;2.60;;;9.30;99.90;;;;;;5015171;28;20310;-90
2024/02/06 09:15:12;;;;;;;3.07;2.60;;;9.30;99.90;;;;;;5018635;28;20260;-89
2024/02/06 09:17:38;;;;;;;4.45;2.55;;;9.30;99.90;;;;;;5033580;28;20270;-91
2024/02/06 09:20:05;;;;;;;5.15;2.88;;;9.20;99.90;;;;;;5016334;28;20286;-89
2024/02/06 09:22:32;;;;;;;4.33;2.60;;;9.20;99.90;;;;;;5012976;28;20244;-91
2024/02/06 09:24:57;;;;;;;8.40;2.73;;;9.20;99.90;;;;;;5012067;28;20202;-87
2024/02/06 09:27:23;;;;;;;6.35;2.65;;;9.20;99.90;;;;;;5016414;28;20186;-91
2024/02/06 09:29:51;;;;;;;5.07;2.53;;;9.30;99.90;;;;;;5013622;28;20186;-91
2024/02/06 09:32:18;;;;;;;3.25;2.13;;;9.40;99.90;;;;;;5017237;28;20182;-89
2024/02/06 09:34:44;;;;;;;5.67;2.40;;;9.40;99.90;;;;;;5016387;28;20214;-90
2024/02/06 09:37:10;;;;;;;3.45;2.15;;;9.40;99.90;;;;;;5017077;28;20189;-91
2024/02/06 09:39:36;;;;;;;6.43;2.28;;;9.40;99.90;;;;;;5011263;28;20201;-90
2024/02/06 09:42:02;;;;;;;6.80;2.50;;;9.50;99.90;;;;;;5034065;28;20186;-91
2024/02/06 09:44:29;;;;;;;5.80;2.20;;;9.50;99.90;;;;;;5013385;28;20197;-88
2024/02/06 09:46:58;;;;;;;7.87;2.70;;;9.60;99.90;;;;;;5010366;28;20187;-90
2024/02/06 09:49:24;;;;;;;4.75;2.20;;;9.50;99.90;;;;;;5015838;28;20186;-89
2024/02/06 09:51:50;;;;;;;4.60;2.03;;;9.60;99.90;;;;;;5015334;28;20178;-89
2024/02/06 09:54:16;;;;;;;6.07;2.50;;;9.60;99.90;;;;;;5033678;28;20708;-89
2024/02/06 09:56:45;;;;;;;7.88;2.55;;;9.60;99.90;;;;;;5014131;28;20182;-88
2024/02/06 09:59:12;;;;;;;4.88;2.42;;;9.50;99.90;;;;;;5016377;28;20190;-90
2024/02/06 10:01:42;;;;;;;4.40;2.88;;;9.60;99.90;;;;;;5033635;28;20178;-89
2024/02/06 10:04:15;;;;;;;6.43;2.78;;;9.60;99.90;;;;;;5014417;28;20182;-91
2024/02/06 10:06:41;;;;;;;6.22;2.65;;;9.60;99.90;;;;;;5034771;28;20506;-88
2024/02/06 10:09:11;;;;;;;5.47;2.47;;;9.60;99.90;;;;;;5015508;28;20197;-90
2024/02/06 10:11:38;;;;;;;5.47;2.35;;;9.70;99.90;;;;;;5032432;28;20174;-92
2024/02/06 10:14:13;;;;;;;6.32;2.80;;;9.70;99.90;;;;;;5014307;28;20233;-91
2024/02/06 10:16:41;;;;;;;4.63;2.67;;;9.70;99.90;;;;;;5033539;28;20241;-88
2024/02/06 10:19:07;;;;;;;7.43;2.67;;;9.70;99.90;;;;;;5028699;28;20185;-88
2024/02/06 10:21:33;;;;;;;5.47;2.75;;;9.70;99.90;;;;;;5032547;28;20182;-91
2024/02/06 10:24:04;;;;;;;5.45;2.78;;;9.70;99.90;;;;;;5030647;28;20183;-90
2024/02/06 10:26:33;;;;;;;6.23;2.60;;;9.60;99.90;;;;;;5015628;28;20645;-90
2024/02/06 10:29:06;;;;;;;5.93;2.58;;;9.70;99.90;;;;;;5029121;28;20350;-92
2024/02/06 10:31:31;;;;;;;8.30;3.00;;;9.70;99.90;;;;;;5013930;28;20527;-89
2024/02/06 10:34:14;;;;;;;5.25;2.85;;;9.70;99.90;;;;;;5027657;28;20206;-90
2024/02/06 10:36:40;;;;;;;5.38;2.95;;;9.70;99.90;;;;;;5012822;28;20190;-89
2024/02/06 10:39:09;;;;;;;6.30;3.00;;;9.80;99.90;;;;;;5014986;28;20182;-89
2024/02/06 10:41:35;;;;;;;6.57;3.33;;;9.80;99.90;;;;;;5012884;28;20178;-92
2024/02/06 10:44:14;;;;;;;4.25;2.63;;;9.90;99.90;;;;;;5011108;28;20193;-93
2024/02/06 10:46:40;;;;;;;5.38;3.05;;;9.90;99.90;;;;;;5030362;28;20262;-91
2024/02/06 10:49:06;;;;;;;5.45;2.90;;;9.90;99.90;;;;;;5028834;28;20214;-90
2024/02/06 10:51:33;;;;;;;8.13;3.37;;;9.90;99.90;;;;;;5032324;28;20175;-91
2024/02/06 10:53:58;;;;;;;7.97;3.33;;;9.90;99.90;;;;;;5014842;28;20332;-89
2024/02/06 10:56:25;;;;;;;6.50;3.03;;;9.90;99.90;;;;;;5014976;28;20277;-92
2024/02/06 10:58:57;;;;;;;6.32;3.20;;;9.90;99.90;;;;;;5014292;28;20287;-88
2024/02/06 11:01:34;;;;;;;13.35;3.55;;;9.90;99.90;;;;;;5031661;28;20228;-91
2024/02/06 11:04:04;;;;;;;9.10;3.40;;;9.90;99.90;;;;;;5013377;28;20240;-91
2024/02/06 11:07:05;;;;;;;7.38;3.28;;;9.80;99.90;;;;;;5013886;28;20184;-91
2024/02/06 11:09:36;;;;;;;7.53;3.08;;;9.80;99.90;;;;;;5012372;28;20336;-89
2024/02/06 11:12:05;;;;;;;7.95;3.47;;;9.80;99.90;;;;;;5012721;28;20333;-86
2024/02/06 11:14:35;;;;;;;5.07;2.92;;;9.80;99.90;;;;;;5014029;28;20731;-90
2024/02/06 11:17:03;;;;;;;6.95;3.00;;;9.80;99.90;;;;;;5012571;28;20691;-90
2024/02/06 11:19:46;;;;;;;9.38;2.72;;;9.80;99.90;;;;;;5012140;28;20194;-88
2024/02/06 11:22:26;;;;;;;11.60;3.08;;;9.90;99.90;;;;;;5013502;28;20183;-89
2024/02/06 11:24:55;;;;;;;3.30;2.40;;;9.90;99.90;;;;;;5032225;28;20184;-91
2024/02/06 11:27:22;;;;;;;4.45;2.50;;;9.90;99.90;;;;;;5013295;28;20263;-90
2024/02/06 11:29:50;;;;;;;5.93;2.60;;;9.90;99.90;;;;;;5013041;28;20178;-89
2024/02/06 11:32:18;;;;;;;6.75;2.50;;;9.90;99.90;;;;;;5026963;28;20175;-90
2024/02/06 11:34:55;;;;;;;7.63;2.30;;;9.90;99.90;;;;;;5032284;28;20210;-93
2024/02/06 11:37:25;;;;;;;4.15;2.10;;;10.00;99.90;;;;;;5033803;28;20493;-91
2024/02/06 11:40:04;;;;;;;8.30;2.55;;;10.00;99.90;;;;;;5008676;28;20236;-91
2024/02/06 11:42:31;;;;;;;4.47;2.22;;;10.00;99.90;;;;;;5014624;28;20187;-90
2024/02/06 11:45:10;;;;;;;3.65;2.22;;;10.00;99.90;;;;;;5011494;28;20270;-91
2024/02/06 11:48:00;;;;;;;6.50;2.30;;;10.00;99.90;;;;;;5024459;28;20189;-90
2024/02/06 11:50:45;;;;;;;3.15;2.08;;;10.00;99.90;;;;;;5032422;28;20174;-91
2024/02/06 11:53:15;;;;;;;3.25;2.20;;;10.00;99.90;;;;;;5006756;28;20199;-91
2024/02/06 11:55:42;;;;;;;4.22;2.17;;;9.90;99.90;;;;;;5014566;28;20190;-91
2024/02/06 11:58:09;;;;;;;4.35;2.50;;;9.90;99.90;;;;;;5010758;28;20182;-93
2024/02/06 12:00:36;;;;;;;4.88;2.00;;;9.80;99.90;;;;;;5025589;28;20609;-92
2024/02/06 12:03:02;;;;;;;6.72;2.30;;;9.80;99.90;;;;;;5014388;28;20620;-94
2024/02/06 12:05:49;;;;;;;5.10;2.78;;;9.80;99.90;;;;;;5014864;28;20179;-93
2024/02/06 12:08:27;;;;;;;5.68;2.65;;;9.80;99.90;;;;;;5013855;28;20632;-91
2024/02/06 12:11:01;;;;;;;8.63;2.97;;;9.80;99.90;;;;;;5014247;28;20174;-90
2024/02/06 12:13:29;;;;;;;9.93;3.00;;;9.80;99.90;;;;;;5033303;28;20671;-92
2024/02/06 12:16:02;;;;;;;8.57;2.83;;;9.80;99.90;;;;;;5001052;28;20289;-91
2024/02/06 12:18:29;;;;;;;7.20;2.90;;;9.80;99.90;;;;;;5020711;28;20162;-91
2024/02/06 12:20:55;;;;;;;6.90;2.70;;;9.80;99.90;;;;;;5000532;28;20179;-95
2024/02/06 12:23:22;;;;;;;9.25;3.05;;;9.80;99.90;;;;;;5016245;28;20183;-91
2024/02/06 12:25:59;;;;;;;4.25;2.75;;;9.80;99.90;;;;;;5016126;28;20202;-92
2024/02/06 12:28:25;;;;;;;4.97;2.40;;;9.80;99.90;;;;;;5016284;28;20214;-92
2024/02/06 12:31:00;;;;;;;7.95;2.72;;;9.90;99.90;;;;;;5016128;28;20274;-91
2024/02/06 12:33:26;;;;;;;8.93;2.22;;;9.90;99.90;;;;;;5008796;28;20657;-92
2024/02/06 12:35:54;;;;;;;8.57;2.88;;;9.90;99.90;;;;;;5016476;28;20290;-91
2024/02/06 12:38:20;;;;;;;5.65;2.95;;;10.00;99.90;;;;;;5009919;28;20175;-91
2024/02/06 12:40:46;;;;;;;4.10;2.42;;;10.10;99.90;;;;;;5000333;28;20326;-92
2024/02/06 12:43:13;;;;;;;7.30;2.92;;;10.00;99.90;;;;;;5017856;28;20676;-92
2024/02/06 12:45:40;;;;;;;10.90;2.85;;;10.00;99.90;;;;;;5006745;28;20238;-95
2024/02/06 12:48:07;;;;;;;9.02;2.70;;;10.00;99.90;;;;;;5000051;28;20188;-91
2024/02/06 12:50:33;;;;;;;6.97;2.80;;;10.10;99.90;;;;;;5002401;28;20192;-94
2024/02/06 12:52:59;;;;;;;10.00;3.15;;;10.10;99.90;;;;;;5017512;28;20186;-92
2024/02/06 12:55:26;;;;;;;6.13;2.50;;;10.10;99.90;;;;;;5016427;28;20187;-92
2024/02/06 12:57:54;;;;;;;6.70;2.90;;;10.20;99.90;;;;;;5016278;28;20179;-88